createdAt,value
2019-05-18T00:01:29.379Z,5.08
2019-05-18T00:03:58.243Z,5.90
2019-05-18T00:06:27.091Z,5.40
2019-05-18T00:08:55.943Z,5.45
2019-05-18T00:11:24.795Z,4.92
2019-05-18T00:13:55.571Z,4.45
2019-05-18T00:16:24.429Z,4.40
2019-05-18T00:18:53.284Z,4.50
2019-05-18T00:21:22.127Z,5.00
2019-05-18T00:23:50.975Z,4.10
2019-05-18T00:26:19.827Z,4.17
2019-05-18T00:28:48.703Z,3.92
2019-05-18T00:31:17.548Z,5.42
2019-05-18T00:33:46.403Z,3.70
2019-05-18T00:36:15.325Z,3.80
2019-05-18T00:38:44.255Z,5.85
2019-05-18T00:41:13.095Z,3.70
2019-05-18T00:43:41.943Z,4.40
2019-05-18T00:46:10.799Z,4.20
2019-05-18T00:48:39.647Z,5.53
2019-05-18T00:51:08.531Z,3.77
2019-05-18T00:53:37.367Z,4.12
2019-05-18T00:56:06.298Z,5.67
2019-05-18T00:58:35.173Z,3.52
2019-05-18T01:01:04.508Z,4.28
2019-05-18T01:03:33.414Z,4.10
2019-05-18T01:06:02.285Z,4.50
2019-05-18T01:08:31.203Z,4.42
2019-05-18T01:11:00.059Z,4.40
2019-05-18T01:13:28.967Z,4.53
2019-05-18T01:15:58.053Z,5.08
2019-05-18T01:18:26.897Z,7.12
2019-05-18T01:20:55.756Z,5.60
2019-05-18T01:23:24.623Z,6.03
2019-05-18T01:25:53.475Z,6.67
2019-05-18T01:28:22.320Z,6.08
2019-05-18T01:30:51.175Z,6.20
2019-05-18T01:33:20.043Z,5.60
2019-05-18T01:35:48.947Z,5.78
2019-05-18T01:38:17.771Z,4.72
2019-05-18T01:40:46.631Z,5.10
2019-05-18T01:43:15.478Z,7.47
2019-05-18T01:45:44.703Z,5.22
2019-05-18T01:48:14.638Z,4.60
2019-05-18T01:50:43.611Z,4.83
2019-05-18T01:53:12.459Z,6.95
2019-05-18T01:55:41.314Z,7.83
2019-05-18T01:58:10.159Z,6.40
2019-05-18T02:00:40.084Z,6.37
2019-05-18T02:03:08.926Z,6.55
2019-05-18T02:05:38.018Z,6.78
2019-05-18T02:08:06.858Z,6.80
2019-05-18T02:10:35.719Z,6.40
2019-05-18T02:13:04.564Z,6.10
2019-05-18T02:15:52.751Z,5.40
2019-05-18T02:18:29.093Z,4.87
2019-05-18T02:20:52.159Z,4.45
2019-05-18T02:23:21.018Z,5.53
2019-05-18T02:25:49.867Z,4.58
2019-05-18T02:28:18.715Z,4.50
2019-05-18T02:30:47.591Z,4.70
2019-05-18T02:33:16.482Z,4.20
2019-05-18T02:35:45.360Z,4.20
2019-05-18T02:38:17.063Z,3.80
2019-05-18T02:40:46.485Z,4.12
2019-05-18T02:43:15.706Z,4.10
2019-05-18T02:45:44.555Z,3.75
2019-05-18T02:48:13.412Z,5.08
2019-05-18T02:50:42.265Z,4.87
2019-05-18T02:53:12.302Z,4.80
2019-05-18T02:55:41.154Z,5.45
2019-05-18T02:58:10.004Z,4.95
2019-05-18T03:00:38.860Z,4.70
2019-05-18T03:03:08.679Z,5.12
2019-05-18T03:05:37.539Z,4.92
2019-05-18T03:08:06.388Z,4.92
2019-05-18T03:10:35.243Z,3.90
2019-05-18T03:13:05.138Z,4.12
2019-05-18T03:15:35.051Z,3.60
2019-05-18T03:18:03.974Z,4.28
2019-05-18T03:20:32.830Z,5.40
2019-05-18T03:23:01.677Z,4.37
2019-05-18T03:25:30.532Z,4.45
2019-05-18T03:27:59.383Z,4.30
2019-05-18T03:30:28.233Z,4.22
2019-05-18T03:32:57.102Z,4.35
2019-05-18T03:35:25.964Z,6.37
2019-05-18T03:37:54.810Z,5.42
2019-05-18T03:40:23.663Z,4.08
2019-05-18T03:42:52.507Z,4.28
2019-05-18T03:45:21.365Z,5.35
2019-05-18T03:47:50.215Z,5.03
2019-05-18T03:50:19.076Z,5.20
2019-05-18T03:52:47.911Z,5.83
2019-05-18T03:55:17.154Z,5.25
2019-05-18T03:57:45.996Z,4.87
2019-05-18T04:00:14.926Z,5.12
2019-05-18T04:02:43.771Z,5.25
2019-05-18T04:05:12.702Z,5.20
2019-05-18T04:07:41.544Z,5.25
2019-05-18T04:10:10.473Z,7.97
2019-05-18T04:12:39.323Z,7.42
2019-05-18T04:15:08.351Z,6.25
2019-05-18T04:17:37.203Z,5.08
2019-05-18T04:20:06.932Z,5.10
2019-05-18T04:22:36.032Z,5.78
2019-05-18T04:25:05.661Z,5.25
2019-05-18T04:27:34.773Z,5.70
2019-05-18T04:30:04.792Z,4.70
2019-05-18T04:32:33.647Z,5.97
2019-05-18T04:35:02.975Z,5.42
2019-05-18T04:37:31.824Z,5.87
2019-05-18T04:40:00.911Z,4.20
2019-05-18T04:42:29.766Z,5.22
2019-05-18T04:44:58.619Z,4.55
2019-05-18T04:47:27.481Z,4.60
2019-05-18T04:50:05.198Z,5.33
2019-05-18T04:52:26.934Z,6.33
2019-05-18T04:54:55.790Z,4.70
2019-05-18T04:57:24.642Z,4.90
2019-05-18T04:59:53.583Z,4.35
2019-05-18T05:02:22.499Z,5.92
2019-05-18T05:04:55.731Z,4.67
2019-05-18T05:07:21.892Z,4.20
2019-05-18T05:09:50.999Z,4.62
2019-05-18T05:12:20.015Z,4.80
2019-05-18T05:14:48.863Z,4.25
2019-05-18T05:17:17.772Z,7.42
2019-05-18T05:19:46.879Z,4.37
2019-05-18T05:22:15.733Z,7.20
2019-05-18T05:24:44.581Z,4.10
2019-05-18T05:27:13.448Z,4.47
2019-05-18T05:29:42.363Z,4.58
2019-05-18T05:32:11.219Z,4.40
2019-05-18T05:34:40.068Z,4.92
2019-05-18T05:37:08.919Z,5.67
2019-05-18T05:39:37.768Z,6.15
2019-05-18T05:42:06.617Z,6.22
2019-05-18T05:44:35.459Z,6.97
2019-05-18T05:47:04.322Z,7.12
2019-05-18T05:49:33.180Z,7.20
2019-05-18T05:52:02.019Z,7.92
2019-05-18T05:54:30.867Z,8.50
2019-05-18T05:56:59.944Z,8.38
2019-05-18T05:59:28.823Z,8.85
2019-05-18T06:01:57.667Z,8.43
2019-05-18T06:04:26.517Z,8.20
2019-05-18T06:06:55.372Z,9.15
2019-05-18T06:09:25.293Z,7.87
2019-05-18T06:11:54.149Z,8.15
2019-05-18T06:14:23.300Z,7.80
2019-05-18T06:16:56.115Z,7.65
2019-05-18T06:19:29.526Z,7.95
2019-05-18T06:21:58.370Z,8.37
2019-05-18T06:24:27.224Z,8.20
2019-05-18T06:26:57.900Z,7.65
2019-05-18T06:29:27.050Z,7.30
2019-05-18T06:32:03.152Z,8.20
2019-05-18T06:34:40.445Z,8.13
2019-05-18T06:37:16.742Z,8.93
2019-05-18T06:39:45.943Z,6.97
2019-05-18T06:42:14.790Z,5.75
2019-05-18T06:44:43.640Z,6.05
2019-05-18T06:47:12.499Z,6.50
2019-05-18T06:49:41.351Z,6.33
2019-05-18T06:52:10.212Z,5.25
2019-05-18T06:54:39.067Z,5.30
2019-05-18T06:57:09.650Z,5.87
2019-05-18T06:59:38.573Z,5.60
2019-05-18T07:02:07.426Z,5.10
2019-05-18T07:04:36.280Z,5.40
2019-05-18T07:07:06.785Z,5.60
2019-05-18T07:09:35.869Z,5.22
2019-05-18T07:12:05.204Z,5.75
2019-05-18T07:14:36.395Z,5.90
2019-05-18T07:17:04.959Z,9.88
2019-05-18T07:19:33.803Z,6.37
2019-05-18T07:22:02.656Z,6.75
2019-05-18T07:24:31.527Z,6.70
2019-05-18T07:27:00.448Z,6.28
2019-05-18T07:29:29.327Z,5.50
2019-05-18T07:31:58.229Z,6.08
2019-05-18T07:34:27.197Z,6.40
2019-05-18T07:36:56.103Z,5.55
2019-05-18T07:39:25.343Z,5.95
2019-05-18T07:41:55.060Z,6.62
2019-05-18T07:44:23.907Z,6.22
2019-05-18T07:46:52.763Z,7.72
2019-05-18T07:49:21.679Z,8.63
2019-05-18T07:51:50.525Z,7.45
2019-05-18T07:54:20.163Z,7.25
2019-05-18T07:56:49.015Z,7.97
2019-05-18T07:59:19.925Z,7.78
2019-05-18T08:01:52.338Z,7.05
2019-05-18T08:04:21.215Z,7.58
2019-05-18T08:06:50.148Z,6.72
2019-05-18T08:09:20.225Z,7.75
2019-05-18T08:11:49.158Z,7.58
2019-05-18T08:14:18.022Z,8.10
2019-05-18T08:16:46.860Z,5.60
2019-05-18T08:19:15.720Z,6.17
2019-05-18T08:21:52.947Z,6.03
2019-05-18T08:24:15.121Z,5.75
2019-05-18T08:26:46.021Z,7.03
2019-05-18T08:29:15.237Z,6.00
2019-05-18T08:31:44.091Z,5.95
2019-05-18T08:34:12.942Z,5.95
2019-05-18T08:36:42.095Z,6.05
2019-05-18T08:39:11.041Z,5.90
2019-05-18T08:41:39.879Z,5.37
2019-05-18T08:44:08.736Z,5.30
2019-05-18T08:46:37.600Z,6.72
2019-05-18T08:49:06.447Z,6.72
2019-05-18T08:51:35.529Z,6.37
2019-05-18T08:54:04.391Z,6.28
2019-05-18T08:56:33.232Z,5.67
2019-05-18T08:59:02.311Z,6.45
2019-05-18T09:01:31.243Z,7.90
2019-05-18T09:04:00.095Z,7.08
2019-05-18T09:06:28.944Z,6.30
2019-05-18T09:08:57.835Z,5.58
2019-05-18T09:11:26.680Z,5.17
2019-05-18T09:13:55.570Z,4.75
2019-05-18T09:16:24.423Z,4.85
2019-05-18T09:18:53.284Z,4.72
2019-05-18T09:21:23.519Z,4.33
2019-05-18T09:23:52.375Z,5.42
2019-05-18T09:26:21.247Z,4.78
2019-05-18T09:28:50.095Z,4.47
2019-05-18T09:31:18.994Z,3.10
2019-05-18T09:33:49.398Z,4.12
2019-05-18T09:36:18.625Z,4.40
2019-05-18T09:38:47.557Z,3.70
2019-05-18T09:41:16.784Z,3.70
2019-05-18T09:43:45.933Z,3.98
2019-05-18T09:46:14.788Z,3.83
2019-05-18T09:48:43.863Z,4.03
2019-05-18T09:51:12.722Z,5.20
2019-05-18T09:53:51.113Z,4.75
2019-05-18T09:56:12.141Z,3.90
2019-05-18T09:58:41.012Z,5.00
2019-05-18T10:01:13.432Z,4.55
2019-05-18T10:03:42.715Z,3.75
2019-05-18T10:06:11.581Z,3.90
2019-05-18T10:08:40.587Z,3.80
2019-05-18T10:11:09.464Z,3.52
2019-05-18T10:13:38.295Z,3.02
2019-05-18T10:16:07.382Z,3.25
2019-05-18T10:18:36.228Z,4.47
2019-05-18T10:21:05.079Z,3.25
2019-05-18T10:23:33.932Z,3.20
2019-05-18T10:26:02.784Z,2.80
2019-05-18T10:28:31.631Z,2.70
2019-05-18T10:31:00.489Z,3.90
2019-05-18T10:33:29.575Z,2.83
2019-05-18T10:35:58.704Z,3.15
2019-05-18T10:38:27.623Z,2.40
2019-05-18T10:40:56.480Z,3.33
2019-05-18T10:43:48.290Z,2.52
2019-05-18T10:46:17.457Z,2.70
2019-05-18T10:48:46.299Z,4.00
2019-05-18T10:51:15.159Z,2.80
2019-05-18T10:53:45.567Z,3.30
2019-05-18T10:56:15.199Z,2.70
2019-05-18T10:58:44.066Z,3.47
2019-05-18T11:01:14.783Z,3.83
2019-05-18T11:03:44.107Z,3.75
2019-05-18T11:06:13.424Z,2.80
2019-05-18T11:08:43.203Z,3.17
2019-05-18T11:11:12.263Z,3.00
2019-05-18T11:13:41.123Z,3.45
2019-05-18T11:16:09.981Z,2.92
2019-05-18T11:18:38.839Z,4.35
2019-05-18T11:21:07.766Z,3.35
2019-05-18T11:23:43.753Z,3.98
2019-05-18T11:26:07.533Z,4.12
2019-05-18T11:28:36.387Z,4.35
2019-05-18T11:31:05.639Z,4.00
2019-05-18T11:33:34.489Z,5.42
2019-05-18T11:36:03.344Z,5.33
2019-05-18T11:38:32.192Z,7.10
2019-05-18T11:41:01.040Z,4.78
2019-05-18T11:43:29.894Z,3.50
2019-05-18T11:45:58.792Z,3.67
2019-05-18T11:48:27.649Z,5.47
2019-05-18T11:50:56.999Z,4.10
2019-05-18T11:53:25.855Z,5.87
2019-05-18T11:55:54.953Z,5.12
2019-05-18T11:58:49.168Z,5.53
2019-05-18T12:01:18.015Z,5.67
2019-05-18T12:03:47.100Z,6.08
2019-05-18T12:06:15.958Z,6.67
2019-05-18T12:08:44.812Z,5.83
2019-05-18T12:11:13.688Z,6.85
2019-05-18T12:13:42.559Z,8.38
2019-05-18T12:16:11.435Z,5.33
2019-05-18T12:18:40.300Z,7.08
2019-05-18T12:21:09.155Z,11.60
2019-05-18T12:23:38.247Z,6.62
2019-05-18T12:26:07.191Z,5.22
2019-05-18T12:28:36.243Z,6.75
2019-05-18T12:31:05.092Z,4.67
2019-05-18T12:33:34.000Z,4.62
2019-05-18T12:36:03.124Z,6.25
2019-05-18T12:38:31.963Z,5.80
2019-05-18T12:41:00.841Z,5.65
2019-05-18T12:43:29.681Z,5.97
2019-05-18T12:45:58.603Z,6.85
2019-05-18T12:48:27.497Z,7.33
2019-05-18T12:50:56.407Z,5.90
2019-05-18T12:53:25.251Z,7.42
2019-05-18T12:55:54.349Z,8.00
2019-05-18T12:58:23.206Z,6.28
2019-05-18T13:00:52.060Z,6.37
2019-05-18T13:03:22.158Z,5.67
2019-05-18T13:05:51.014Z,7.45
2019-05-18T13:08:19.865Z,6.03
2019-05-18T13:10:48.719Z,5.90
2019-05-18T13:13:17.943Z,5.15
2019-05-18T13:15:46.785Z,6.72
2019-05-18T13:18:15.643Z,5.97
2019-05-18T13:20:44.486Z,5.33
2019-05-18T13:23:13.493Z,4.75
2019-05-18T13:25:43.042Z,4.83
2019-05-18T13:28:12.472Z,4.10
2019-05-18T13:30:41.328Z,5.92
2019-05-18T13:33:10.191Z,7.05
2019-05-18T13:35:39.198Z,4.47
2019-05-18T13:38:08.052Z,6.08
2019-05-18T13:40:37.990Z,5.12
2019-05-18T13:43:06.827Z,4.05
2019-05-18T13:45:35.736Z,4.20
2019-05-18T13:48:04.589Z,4.20
2019-05-18T13:50:33.471Z,5.72
2019-05-18T13:53:02.601Z,3.40
2019-05-18T13:55:31.453Z,3.58
2019-05-18T13:58:00.323Z,5.28
2019-05-18T14:00:29.493Z,3.90
2019-05-18T14:02:58.367Z,5.30
2019-05-18T14:05:27.287Z,5.35
2019-05-18T14:07:56.145Z,6.28
2019-05-18T14:10:25.018Z,4.12
2019-05-18T14:12:54.177Z,4.78
2019-05-18T14:15:23.308Z,3.47
2019-05-18T14:17:52.362Z,3.92
2019-05-18T14:20:21.211Z,3.75
2019-05-18T14:22:50.108Z,4.72
2019-05-18T14:25:20.210Z,3.85
2019-05-18T14:27:49.442Z,4.12
2019-05-18T14:30:19.091Z,3.70
2019-05-18T14:32:47.953Z,3.77
2019-05-18T14:35:16.797Z,2.70
2019-05-18T14:37:45.677Z,3.60
2019-05-18T14:40:14.623Z,5.83
2019-05-18T14:42:43.771Z,3.20
2019-05-18T14:45:12.861Z,3.65
2019-05-18T14:47:41.728Z,2.75
2019-05-18T14:50:10.846Z,3.92
2019-05-18T14:52:39.708Z,2.70
2019-05-18T14:55:08.628Z,4.47
2019-05-18T14:57:37.486Z,3.90
2019-05-18T15:00:06.920Z,4.30
2019-05-18T15:02:35.847Z,5.92
2019-05-18T15:05:05.871Z,3.70
2019-05-18T15:07:34.727Z,4.30
2019-05-18T15:10:05.717Z,4.37
2019-05-18T15:12:34.556Z,4.75
2019-05-18T15:15:04.880Z,6.35
2019-05-18T15:17:33.739Z,5.35
2019-05-18T15:20:02.679Z,3.92
2019-05-18T15:22:31.525Z,3.50
2019-05-18T15:25:00.383Z,5.75
2019-05-18T15:27:29.259Z,4.50
2019-05-18T15:29:58.091Z,3.47
2019-05-18T15:32:26.951Z,5.28
2019-05-18T15:34:55.807Z,3.92
2019-05-18T15:37:24.673Z,4.28
2019-05-18T15:39:53.523Z,3.35
2019-05-18T15:42:22.371Z,4.33
2019-05-18T15:44:51.223Z,4.20
2019-05-18T15:47:20.076Z,4.45
2019-05-18T15:49:48.933Z,5.00
2019-05-18T15:52:17.856Z,4.08
2019-05-18T15:54:46.714Z,4.30
2019-05-18T15:57:15.757Z,4.15
2019-05-18T15:59:44.611Z,17.17
2019-05-18T16:02:13.478Z,4.87
2019-05-18T16:04:42.319Z,5.20
2019-05-18T16:07:11.242Z,10.93
2019-05-18T16:09:40.092Z,8.53
2019-05-18T16:12:08.942Z,4.28
2019-05-18T16:14:39.221Z,4.78
2019-05-18T16:19:56.715Z,4.28
2019-05-18T16:22:25.568Z,4.47
2019-05-18T16:24:54.439Z,4.62
2019-05-18T16:27:23.308Z,4.75
2019-05-18T16:29:52.219Z,7.42
2019-05-18T16:32:21.078Z,12.03
2019-05-18T16:34:49.928Z,7.83
2019-05-18T16:37:18.781Z,21.60
2019-05-18T16:39:47.640Z,6.47
2019-05-18T16:42:16.800Z,4.10
2019-05-18T16:44:45.658Z,4.55
2019-05-18T16:47:14.874Z,4.03
2019-05-18T16:49:43.724Z,5.83
2019-05-18T16:52:12.579Z,5.50
2019-05-18T16:54:41.441Z,8.10
2019-05-18T16:57:10.283Z,5.33
2019-05-18T16:59:39.143Z,4.45
2019-05-18T17:02:08.270Z,5.25
2019-05-18T17:04:38.183Z,5.00
2019-05-18T17:07:07.056Z,6.78
2019-05-18T17:09:35.921Z,9.20
2019-05-18T17:12:04.775Z,5.20
2019-05-18T17:14:33.964Z,4.10
2019-05-18T17:17:02.823Z,3.70
2019-05-18T17:19:31.680Z,4.45
2019-05-18T17:22:00.543Z,6.92
2019-05-18T17:24:29.388Z,3.60
2019-05-18T17:26:58.235Z,4.95
2019-05-18T17:29:27.164Z,4.25
2019-05-18T17:31:56.013Z,5.17
2019-05-18T17:34:24.878Z,5.37
2019-05-18T17:36:54.000Z,3.60
2019-05-18T17:39:22.973Z,5.50
2019-05-18T17:41:52.200Z,4.08
2019-05-18T17:44:21.044Z,6.55
2019-05-18T17:46:49.896Z,7.62
2019-05-18T17:49:26.473Z,6.35
2019-05-18T17:51:49.327Z,5.08
2019-05-18T17:54:18.179Z,4.30
2019-05-18T17:56:47.032Z,4.12
2019-05-18T17:59:15.883Z,5.78
2019-05-18T18:01:44.740Z,3.83
2019-05-18T18:04:13.607Z,5.45
2019-05-18T18:06:42.476Z,4.85
2019-05-18T18:09:11.396Z,3.65
2019-05-18T18:11:40.259Z,4.03
2019-05-18T18:14:09.295Z,3.95
2019-05-18T18:16:38.228Z,4.55
2019-05-18T18:19:07.078Z,5.35
2019-05-18T18:21:36.017Z,3.60
2019-05-18T18:24:04.885Z,3.50
2019-05-18T18:26:36.083Z,3.90
2019-05-18T18:29:05.007Z,5.08
2019-05-18T18:31:33.859Z,3.35
2019-05-18T18:34:02.988Z,5.25
2019-05-18T18:36:31.838Z,5.20
2019-05-18T18:39:00.704Z,4.70
2019-05-18T18:41:30.703Z,4.22
2019-05-18T18:44:02.656Z,7.15
2019-05-18T18:46:33.527Z,4.25
2019-05-18T18:49:02.392Z,3.20
2019-05-18T18:51:31.268Z,5.22
2019-05-18T18:54:02.190Z,4.47
2019-05-18T18:56:31.203Z,5.22
2019-05-18T18:59:00.111Z,4.00
2019-05-18T19:01:29.332Z,6.50
2019-05-18T19:03:59.417Z,5.12
2019-05-18T19:06:29.613Z,4.53
2019-05-18T19:09:02.093Z,6.87
2019-05-18T19:11:33.802Z,5.37
2019-05-18T19:14:03.566Z,5.33
2019-05-18T19:16:32.405Z,5.58
2019-05-18T19:19:01.251Z,12.98
2019-05-18T19:21:30.131Z,4.90
2019-05-18T19:23:59.968Z,4.72
2019-05-18T19:26:28.838Z,4.87
2019-05-18T19:28:58.753Z,6.15
2019-05-18T19:31:27.676Z,5.12
2019-05-18T19:33:56.539Z,4.33
2019-05-18T19:36:25.394Z,4.30
2019-05-18T19:38:54.243Z,4.83
2019-05-18T19:41:23.088Z,4.20
2019-05-18T19:43:51.931Z,4.20
2019-05-18T19:46:21.179Z,4.05
2019-05-18T19:48:50.022Z,3.72
2019-05-18T19:51:19.960Z,4.12
2019-05-18T19:53:48.811Z,4.08
2019-05-18T19:56:17.663Z,3.55
2019-05-18T19:58:46.524Z,3.90
2019-05-18T20:01:15.374Z,4.40
2019-05-18T20:03:44.243Z,3.40
2019-05-18T20:06:13.088Z,3.70
2019-05-18T20:08:41.945Z,3.25
2019-05-18T20:11:10.791Z,4.28
2019-05-18T20:13:39.652Z,4.75
2019-05-18T20:16:08.503Z,3.90
2019-05-18T20:18:37.433Z,4.05
2019-05-18T20:21:06.623Z,3.42
2019-05-18T20:23:35.461Z,4.78
2019-05-18T20:26:04.312Z,4.15
2019-05-18T20:28:33.155Z,3.47
2019-05-18T20:31:02.162Z,3.35
2019-05-18T20:33:31.171Z,4.62
2019-05-18T20:36:00.028Z,5.47
2019-05-18T20:38:28.876Z,4.28
2019-05-18T20:40:59.330Z,3.80
2019-05-18T20:43:29.643Z,4.75
2019-05-18T20:45:58.831Z,7.05
2019-05-18T20:48:27.683Z,5.00
2019-05-18T20:50:56.834Z,4.25
2019-05-18T20:53:25.695Z,3.60
2019-05-18T20:56:02.143Z,5.87
2019-05-18T20:58:40.265Z,3.30
2019-05-18T21:01:12.425Z,3.98
2019-05-18T21:03:48.848Z,4.25
2019-05-18T21:06:18.492Z,4.20
2019-05-18T21:08:50.777Z,5.28
2019-05-18T21:11:33.834Z,4.28
2019-05-18T21:14:13.948Z,4.17
2019-05-18T21:16:44.506Z,8.50
2019-05-18T21:19:13.377Z,5.25
2019-05-18T21:21:42.242Z,5.97
2019-05-18T21:24:11.087Z,5.92
2019-05-18T21:26:39.949Z,6.20
2019-05-18T21:29:08.803Z,5.05
2019-05-18T21:31:37.659Z,5.62
2019-05-18T21:34:06.518Z,5.12
2019-05-18T21:36:35.389Z,5.00
2019-05-18T21:39:05.179Z,4.00
2019-05-18T21:41:34.024Z,4.47
2019-05-18T21:44:03.956Z,4.70
2019-05-18T21:46:32.803Z,4.33
2019-05-18T21:49:01.656Z,4.47
2019-05-18T21:51:30.500Z,4.58
2019-05-18T21:53:59.661Z,4.53
2019-05-18T21:56:31.251Z,4.70
2019-05-18T21:59:11.114Z,4.47
2019-05-18T22:01:30.731Z,4.20
2019-05-18T22:03:59.590Z,4.62
2019-05-18T22:06:28.440Z,4.30
2019-05-18T22:08:57.309Z,4.60
2019-05-18T22:11:26.164Z,4.28
2019-05-18T22:13:55.014Z,5.55
2019-05-18T22:16:23.868Z,4.30
2019-05-18T22:18:52.731Z,4.17
2019-05-18T22:21:21.580Z,4.08
2019-05-18T22:23:50.428Z,4.47
2019-05-18T22:26:19.287Z,3.85
2019-05-18T22:28:48.135Z,4.25
2019-05-18T22:31:19.715Z,5.03
2019-05-18T22:33:48.787Z,5.45
2019-05-18T22:36:17.723Z,6.35
2019-05-18T22:38:46.575Z,6.30
2019-05-18T22:41:15.423Z,6.50
2019-05-18T22:43:44.283Z,7.22
2019-05-18T22:46:13.156Z,9.20
2019-05-18T22:48:42.009Z,12.93
2019-05-18T22:51:10.906Z,17.17
2019-05-18T22:53:39.747Z,19.07
2019-05-18T22:56:08.987Z,22.15
2019-05-18T22:58:37.843Z,22.52
2019-05-18T23:01:06.714Z,23.80
2019-05-18T23:03:35.580Z,27.77
2019-05-18T23:06:04.439Z,30.77
2019-05-18T23:08:33.298Z,25.08
2019-05-18T23:11:02.159Z,23.87
2019-05-18T23:13:31.031Z,20.48
2019-05-18T23:16:00.187Z,25.55
2019-05-18T23:18:29.091Z,21.12
2019-05-18T23:20:57.962Z,21.87
2019-05-18T23:23:26.838Z,27.48
2019-05-18T23:25:55.693Z,27.42
2019-05-18T23:28:24.550Z,28.73
2019-05-18T23:30:53.429Z,29.63
2019-05-18T23:33:22.508Z,29.25
2019-05-18T23:35:51.371Z,30.82
2019-05-18T23:38:20.234Z,28.27
2019-05-18T23:40:49.095Z,26.15
2019-05-18T23:43:17.959Z,26.97
2019-05-18T23:45:46.819Z,25.95
2019-05-18T23:48:15.721Z,28.07
2019-05-18T23:50:44.557Z,28.12
2019-05-18T23:53:14.482Z,31.45
2019-05-18T23:55:43.352Z,38.75
2019-05-18T23:58:12.208Z,36.95
